Iroquois, Illinois
Current Conditions -  °F | °C
As of 6:15 AM on Friday 28 Nov 2014 (Local Time) from KRZL Reporting Station
Overcast Overcast  
Wind Chill: 14°   Ceiling: 8000
Heat Index: 21°   Visibility: 10mi
Dew Point: 21°   Wind: 6mph
Humidity: 100%   Direction: 160°SSE
Pressure: 30.34"   Gusts: NA
Location:  40.83°N, 87.58°W
Report Text: KRZL 281215Z AUTO 16005KT 10SM SCT065 OVC080 M06/M06 A3034 RMK AO2
Loading
Personal Weather Stations






























Interactive Weather Map New forecast layout! Learn more

10-Day Weather Forecast

Advertisements
Track Severe Weather on mobile